Time;durP1;ratioP1;P1;durP2;ratioP2;P2;SDS_P1;SDS_P2;PMS_P1;PMS_P2;Temp;Humidity;BMP_temperature;BMP_pressure;BME280_temperature;BME280_humidity;BME280_pressure;Samples;Min_cycle;Max_cycle;Signal;HPM_P1;HPM_P2
2022/12/11 00:00:05;;;;;;;21.05;12.43;;;-0.70;1.00;;;;;;5119282;28;20197;-82
2022/12/11 00:02:32;;;;;;;21.75;12.20;;;;;;;;;;5118359;28;20192;-82
2022/12/11 00:05:00;;;;;;;27.00;12.15;;;-0.90;99.90;;;;;;5117201;28;20242;-82
2022/12/11 00:07:27;;;;;;;20.52;12.15;;;-0.70;1.00;;;;;;5118156;28;20221;-82
2022/12/11 00:09:54;;;;;;;18.27;11.05;;;-0.80;44.40;;;;;;5110068;28;20225;-82
2022/12/11 00:12:21;;;;;;;16.27;11.70;;;-1.30;61.80;;;;;;5117531;28;20192;-83
2022/12/11 00:14:48;;;;;;;19.30;9.95;;;-1.10;99.90;;;;;;5110774;28;20328;-84
2022/12/11 00:17:15;;;;;;;15.18;11.43;;;-1.00;46.10;;;;;;5110992;28;20240;-83
2022/12/11 00:19:41;;;;;;;22.45;12.82;;;-0.70;99.90;;;;;;5107906;28;20201;-84
2022/12/11 00:22:10;;;;;;;15.13;10.13;;;-0.70;1.00;;;;;;5105538;28;20239;-83
2022/12/11 00:24:36;;;;;;;20.80;11.18;;;-0.50;1.00;;;;;;5104428;28;20228;-83
2022/12/11 00:27:03;;;;;;;19.70;11.13;;;-0.90;56.30;;;;;;5105026;28;20313;-83
2022/12/11 00:29:31;;;;;;;17.90;10.93;;;-0.60;37.60;;;;;;5105706;28;20218;-83
2022/12/11 00:31:58;;;;;;;15.30;10.25;;;-1.00;99.90;;;;;;5105068;28;20658;-83
2022/12/11 00:34:25;;;;;;;23.20;11.57;;;-1.10;1.00;;;;;;5104971;28;20281;-83
2022/12/11 00:36:52;;;;;;;15.90;10.82;;;-1.20;1.00;;;;;;5106418;28;20225;-83
2022/12/11 00:39:20;;;;;;;22.00;11.27;;;-1.00;1.00;;;;;;5105232;28;20200;-83
2022/12/11 00:41:47;;;;;;;14.93;9.73;;;;;;;;;;5104675;28;20209;-82
2022/12/11 00:44:14;;;;;;;16.60;10.45;;;;;;;;;;5106710;28;20232;-83
2022/12/11 00:46:41;;;;;;;20.67;13.10;;;-1.10;1.00;;;;;;5106566;28;20257;-83
2022/12/11 00:49:08;;;;;;;21.42;11.38;;;-1.00;1.00;;;;;;5106259;28;20252;-83
2022/12/11 00:51:35;;;;;;;17.08;10.27;;;-0.60;1.00;;;;;;5106126;28;20201;-83
2022/12/11 00:54:02;;;;;;;20.00;11.65;;;;;;;;;;5110338;28;20232;-83
2022/12/11 00:56:30;;;;;;;20.23;11.55;;;-0.60;1.00;;;;;;5116892;28;20231;-83
2022/12/11 00:58:57;;;;;;;18.77;11.13;;;-1.30;1.00;;;;;;5117695;28;20232;-82
2022/12/11 01:01:26;;;;;;;20.50;12.38;;;-0.70;1.00;;;;;;5108960;28;20211;-84
2022/12/11 01:03:54;;;;;;;16.77;10.52;;;-1.10;1.00;;;;;;5104065;28;20599;-83
2022/12/11 01:06:22;;;;;;;16.40;10.13;;;-0.70;1.00;;;;;;5103056;28;20667;-83
2022/12/11 01:10:22;;;;;;;16.83;10.40;;;-0.50;1.00;;;;;;5101737;28;20236;-83
2022/12/11 01:11:39;;;;;;;20.98;11.88;;;-0.50;1.00;;;;;;5101401;28;20216;-83
2022/12/11 01:16:41;;;;;;;17.90;10.65;;;;;;;;;;5103675;28;20224;-82
2022/12/11 01:19:27;;;;;;;17.08;9.80;;;;;;;;;;5107842;28;20220;-82
2022/12/11 01:21:56;;;;;;;18.30;10.57;;;;;;;;;;5054111;28;20209;-83
2022/12/11 01:24:29;;;;;;;23.70;10.73;;;;;;;;;;5092894;28;20230;-82
2022/12/11 01:26:59;;;;;;;16.35;11.38;;;;;;;;;;5081003;28;20195;-82
2022/12/11 01:29:26;;;;;;;20.23;12.93;;;;;;;;;;5093509;28;20244;-82
2022/12/11 01:31:55;;;;;;;17.73;10.55;;;;;;;;;;5097497;28;20198;-81
2022/12/11 01:34:25;;;;;;;17.08;10.18;;;;;;;;;;5096183;28;20253;-82
2022/12/11 01:37:01;;;;;;;17.30;11.95;;;;;;;;;;5089526;28;20205;-84
2022/12/11 01:39:41;;;;;;;19.52;11.10;;;;;;;;;;5090278;28;20201;-82
2022/12/11 01:42:17;;;;;;;19.67;10.10;;;-0.50;1.00;;;;;;5091130;28;20201;-82
2022/12/11 01:45:33;;;;;;;18.23;12.07;;;-0.60;99.90;;;;;;5082317;28;20222;-84
2022/12/11 01:48:11;;;;;;;19.50;12.00;;;-0.60;1.00;;;;;;5019799;28;20212;-84
2022/12/11 01:50:57;;;;;;;21.63;12.27;;;-0.60;1.00;;;;;;5019692;28;20212;-83
2022/12/11 01:53:37;;;;;;;18.73;11.02;;;-0.50;1.00;;;;;;5065661;28;20270;-82
2022/12/11 01:56:10;;;;;;;17.05;10.90;;;-0.60;1.00;;;;;;5092200;28;20208;-82
2022/12/11 01:58:52;;;;;;;19.30;12.43;;;-0.60;1.00;;;;;;5084634;28;20191;-84
2022/12/11 02:01:43;;;;;;;19.70;10.95;;;-0.60;1.00;;;;;;5080463;28;20182;-84
2022/12/11 02:04:12;;;;;;;29.65;15.70;;;;;;;;;;5080920;28;20226;-81
2022/12/11 02:06:49;;;;;;;17.75;12.00;;;-0.70;1.00;;;;;;5081607;28;20300;-85
2022/12/11 02:09:25;;;;;;;21.55;13.18;;;-0.60;1.00;;;;;;5088965;28;20205;-84
2022/12/11 02:14:56;;;;;;;19.48;10.98;;;-0.90;1.00;;;;;;5085516;28;20294;-82
2022/12/11 02:17:38;;;;;;;24.85;13.40;;;-0.90;1.00;;;;;;5003680;28;20192;-82
2022/12/11 02:20:13;;;;;;;20.70;12.43;;;-0.80;99.90;;;;;;5003421;28;20272;-83
2022/12/11 02:23:15;;;;;;;19.10;13.30;;;-0.50;1.00;;;;;;5000005;28;20207;-83
2022/12/11 02:26:02;;;;;;;21.95;11.68;;;-0.90;1.00;;;;;;4998859;28;20228;-83
2022/12/11 02:28:37;;;;;;;22.85;12.75;;;-1.00;1.00;;;;;;5011470;28;20201;-82
2022/12/11 02:31:21;;;;;;;24.13;12.98;;;-1.00;1.00;;;;;;5014509;28;20199;-82
2022/12/11 02:33:55;;;;;;;21.98;12.07;;;-0.90;1.00;;;;;;5012316;28;20224;-81
2022/12/11 02:36:25;;;;;;;22.67;11.55;;;-1.10;1.00;;;;;;4996285;28;20192;-82
2022/12/11 02:38:58;;;;;;;26.17;12.75;;;-1.30;20.10;;;;;;4996739;28;20220;-82
2022/12/11 02:41:28;;;;;;;19.27;11.82;;;-1.00;54.20;;;;;;4995914;28;20196;-83
2022/12/11 02:44:06;;;;;;;27.55;13.48;;;-0.90;1.00;;;;;;4995835;28;20224;-83
2022/12/11 02:46:38;;;;;;;23.52;12.18;;;-0.90;1.00;;;;;;5001080;28;20200;-83
2022/12/11 02:49:08;;;;;;;22.05;12.90;;;-1.00;1.00;;;;;;5000863;28;20189;-82
2022/12/11 02:51:45;;;;;;;21.13;12.45;;;-1.00;99.90;;;;;;5000830;28;20279;-83
2022/12/11 02:54:19;;;;;;;22.60;11.35;;;-0.90;99.90;;;;;;5001262;28;20274;-83
2022/12/11 02:59:43;;;;;;;22.25;12.63;;;-0.80;99.90;;;;;;5001448;28;20209;-82
2022/12/11 03:02:14;;;;;;;24.00;12.65;;;-0.80;99.90;;;;;;5000841;28;20196;-84
2022/12/11 03:04:44;;;;;;;24.15;12.68;;;;;;;;;;5000805;28;20229;-83
2022/12/11 03:07:25;;;;;;;31.27;15.10;;;-0.90;99.90;;;;;;5002600;28;20235;-80
2022/12/11 03:09:54;;;;;;;25.80;12.38;;;;;;;;;;5000762;28;20213;-82
2022/12/11 03:12:55;;;;;;;19.73;12.73;;;-0.80;89.70;;;;;;5000606;28;20208;-83
2022/12/11 03:16:00;;;;;;;18.30;11.85;;;-0.70;99.90;;;;;;5000690;28;20235;-83
2022/12/11 03:18:40;;;;;;;23.27;13.10;;;-0.80;8.40;;;;;;5000042;28;20247;-83
2022/12/11 03:21:10;;;;;;;19.55;12.13;;;;;;;;;;4998731;28;20185;-82
2022/12/11 03:23:51;;;;;;;22.33;12.50;;;-0.80;29.10;;;;;;4998409;28;20299;-82
2022/12/11 03:26:27;;;;;;;22.63;11.40;;;;;;;;;;4998804;28;20643;-83
2022/12/11 03:29:03;;;;;;;20.80;13.90;;;-0.90;99.90;;;;;;5012316;28;20181;-80
2022/12/11 03:31:44;;;;;;;22.98;13.43;;;-1.00;95.90;;;;;;5015713;28;20248;-79
2022/12/11 03:34:16;;;;;;;21.13;13.18;;;-1.00;99.90;;;;;;5005377;28;20230;-82
2022/12/11 03:37:00;;;;;;;22.63;13.55;;;-0.90;99.90;;;;;;4999432;28;20227;-83
2022/12/11 03:39:30;;;;;;;31.02;13.43;;;;;;;;;;4998564;28;20200;-84
2022/12/11 03:42:07;;;;;;;22.30;11.35;;;-0.80;99.90;;;;;;4998247;28;20238;-83
2022/12/11 03:44:44;;;;;;;20.65;12.48;;;-0.90;99.90;;;;;;4997974;28;20719;-83
2022/12/11 03:47:17;;;;;;;20.30;12.48;;;-0.70;99.90;;;;;;4998938;28;20193;-81
2022/12/11 03:49:45;;;;;;;18.02;10.95;;;-0.50;99.90;;;;;;5002391;28;20265;-83
2022/12/11 03:52:14;;;;;;;20.92;11.82;;;-0.70;99.90;;;;;;5000327;28;20219;-81
2022/12/11 03:54:42;;;;;;;16.05;10.98;;;-0.40;99.90;;;;;;5013955;28;20228;-80
2022/12/11 03:57:13;;;;;;;20.20;12.07;;;-0.50;99.90;;;;;;5003089;28;20303;-82
2022/12/11 03:59:39;;;;;;;21.75;12.82;;;-0.80;99.90;;;;;;4998236;28;20287;-83
2022/12/11 04:02:09;;;;;;;21.25;12.13;;;-1.40;99.90;;;;;;4999229;28;20231;-83
2022/12/11 04:04:38;;;;;;;22.00;12.00;;;-0.80;99.90;;;;;;4997218;28;20242;-82
2022/12/11 04:07:08;;;;;;;29.50;13.60;;;-1.00;99.90;;;;;;4999800;28;20243;-81
2022/12/11 04:09:35;;;;;;;22.25;12.82;;;-0.90;99.90;;;;;;5000149;28;20204;-83
2022/12/11 04:12:03;;;;;;;21.67;12.13;;;-0.80;99.90;;;;;;4998717;28;20232;-83
2022/12/11 04:24:13;;;;;;;23.40;12.25;;;-1.00;99.90;;;;;;4999911;28;20235;-83
2022/12/11 04:25:32;;;;;;;18.25;11.15;;;-1.10;99.90;;;;;;5011785;28;20231;-80
2022/12/11 04:27:59;;;;;;;20.00;11.52;;;-1.00;1.00;;;;;;5011613;28;20215;-80
2022/12/11 04:30:27;;;;;;;21.55;12.30;;;-0.50;99.90;;;;;;5010652;28;20245;-82
2022/12/11 04:32:55;;;;;;;24.77;12.13;;;-1.50;99.90;;;;;;5010951;28;20213;-80
2022/12/11 04:35:24;;;;;;;27.17;13.85;;;-1.20;1.00;;;;;;5011664;28;20232;-82
2022/12/11 04:37:52;;;;;;;23.08;11.90;;;-0.90;99.90;;;;;;5011606;28;20234;-82
2022/12/11 04:40:19;;;;;;;30.15;15.05;;;-0.80;99.90;;;;;;5011978;28;20259;-82
2022/12/11 04:42:46;;;;;;;25.70;14.30;;;-1.10;1.00;;;;;;5008572;28;20291;-84
2022/12/11 04:45:13;;;;;;;24.92;13.40;;;-1.40;1.00;;;;;;5005674;28;20323;-81
2022/12/11 04:47:41;;;;;;;30.55;14.40;;;-0.80;1.00;;;;;;5010963;28;20259;-82
2022/12/11 04:50:13;;;;;;;27.33;13.18;;;-1.00;1.00;;;;;;5008520;28;20212;-81
2022/12/11 04:52:41;;;;;;;21.38;13.10;;;-0.90;1.00;;;;;;5008665;28;20194;-82
2022/12/11 04:55:10;;;;;;;20.42;12.90;;;-1.30;1.00;;;;;;5011064;28;20225;-80
2022/12/11 04:57:37;;;;;;;22.00;12.75;;;-1.10;1.00;;;;;;5005512;28;20240;-83
2022/12/11 05:00:16;;;;;;;22.40;12.77;;;-0.90;1.00;;;;;;5001297;28;20212;-83
2022/12/11 05:02:43;;;;;;;21.90;12.40;;;-1.30;1.00;;;;;;4999756;28;20211;-83
2022/12/11 05:05:11;;;;;;;21.50;12.23;;;-1.10;1.00;;;;;;4998925;28;20240;-84
2022/12/11 05:07:39;;;;;;;23.13;12.45;;;-1.00;1.00;;;;;;4999765;28;20215;-83
2022/12/11 05:10:12;;;;;;;27.48;13.20;;;-1.00;1.00;;;;;;4998693;28;20239;-83
2022/12/11 05:12:39;;;;;;;21.13;13.48;;;-1.20;1.00;;;;;;5011459;28;20202;-80
2022/12/11 05:15:10;;;;;;;24.80;12.35;;;-0.80;1.00;;;;;;5011713;28;20240;-79
2022/12/11 05:17:37;;;;;;;26.40;11.88;;;;;;;;;;5011550;28;20213;-82
2022/12/11 05:20:05;;;;;;;23.80;13.02;;;-0.90;1.00;;;;;;5002783;28;20208;-83
2022/12/11 05:22:32;;;;;;;22.00;12.82;;;-1.10;99.90;;;;;;4997753;28;20227;-83
2022/12/11 05:24:59;;;;;;;23.92;14.18;;;-1.20;1.00;;;;;;5000638;28;20695;-83
2022/12/11 05:27:27;;;;;;;21.63;13.05;;;-1.20;99.90;;;;;;4997939;28;20262;-83
2022/12/11 05:29:55;;;;;;;20.50;12.65;;;-0.30;1.00;;;;;;4996688;28;20227;-83
2022/12/11 05:32:22;;;;;;;24.55;13.15;;;-1.20;1.00;;;;;;4997461;28;20261;-82
2022/12/11 05:34:53;;;;;;;24.00;12.77;;;-1.20;1.00;;;;;;4996803;28;20245;-83
2022/12/11 05:37:20;;;;;;;26.38;13.90;;;-0.70;1.00;;;;;;4997599;28;20226;-83
2022/12/11 05:39:48;;;;;;;26.92;13.27;;;-1.10;1.00;;;;;;5005514;28;20218;-81
2022/12/11 05:42:15;;;;;;;22.23;12.63;;;-0.70;1.00;;;;;;5008625;28;20338;-81
2022/12/11 05:44:43;;;;;;;20.45;11.70;;;-0.80;1.00;;;;;;5015472;28;20211;-79
2022/12/11 05:47:10;;;;;;;20.65;13.50;;;-0.90;1.00;;;;;;5007596;28;20208;-84
2022/12/11 05:49:38;;;;;;;21.58;11.02;;;-0.80;1.00;;;;;;5005394;28;20209;-83
2022/12/11 05:52:05;;;;;;;21.17;11.82;;;;;;;;;;5014895;28;20204;-83
2022/12/11 05:54:32;;;;;;;27.30;13.52;;;-1.00;1.00;;;;;;5014935;28;20232;-83
2022/12/11 05:56:59;;;;;;;24.75;12.15;;;-0.90;1.00;;;;;;5007921;28;20226;-84
2022/12/11 05:59:26;;;;;;;17.35;11.25;;;-0.60;1.00;;;;;;4998573;28;20295;-84
2022/12/11 06:01:55;;;;;;;23.85;11.75;;;-1.20;1.00;;;;;;4997073;28;20231;-83
2022/12/11 06:04:22;;;;;;;16.85;11.43;;;-0.90;1.00;;;;;;4998061;28;20295;-83
2022/12/11 06:06:50;;;;;;;22.75;11.73;;;-0.90;1.00;;;;;;4997463;28;20207;-84
2022/12/11 06:09:17;;;;;;;19.48;10.55;;;-1.30;1.00;;;;;;4998136;28;20263;-83
2022/12/11 06:11:44;;;;;;;17.10;11.95;;;-0.90;1.00;;;;;;5000491;28;20234;-83
2022/12/11 06:14:13;;;;;;;25.35;11.30;;;-1.00;1.00;;;;;;5011819;28;20222;-83
2022/12/11 06:16:40;;;;;;;19.05;11.85;;;-1.00;1.00;;;;;;5002751;28;20215;-82
2022/12/11 06:19:14;;;;;;;18.63;10.98;;;-1.20;1.00;;;;;;5001884;28;20223;-83
2022/12/11 06:21:41;;;;;;;17.88;9.85;;;-0.60;1.00;;;;;;5009642;28;20219;-82
2022/12/11 06:24:11;;;;;;;20.45;12.60;;;-1.40;1.00;;;;;;5006896;28;20347;-84
2022/12/11 06:26:38;;;;;;;18.75;10.57;;;-1.10;1.00;;;;;;5001431;28;20218;-83
2022/12/11 06:29:05;;;;;;;16.80;9.95;;;-1.30;1.00;;;;;;5002483;28;20203;-83
2022/12/11 06:31:32;;;;;;;17.95;10.98;;;-2.20;99.90;;;;;;5002686;28;20288;-83
2022/12/11 06:33:59;;;;;;;30.30;11.60;;;-1.30;1.00;;;;;;5001332;28;20315;-84
2022/12/11 06:36:27;;;;;;;20.63;11.20;;;-1.10;1.00;;;;;;5001764;28;20618;-83
2022/12/11 06:38:55;;;;;;;21.50;10.98;;;-1.20;1.00;;;;;;5003128;28;20228;-83
2022/12/11 06:41:22;;;;;;;22.20;13.20;;;-0.90;1.00;;;;;;5002895;28;20571;-83
2022/12/11 06:43:49;;;;;;;21.95;12.18;;;-1.10;1.00;;;;;;5001317;28;20255;-83
2022/12/11 06:46:18;;;;;;;20.42;11.98;;;-0.70;1.00;;;;;;4999642;28;20205;-83
2022/12/11 06:48:50;;;;;;;22.40;13.15;;;-2.40;99.90;;;;;;5001454;28;20276;-83
2022/12/11 06:51:19;;;;;;;26.30;12.63;;;-1.20;1.00;;;;;;5000064;28;20218;-83
2022/12/11 06:53:52;;;;;;;24.48;11.35;;;-1.60;1.00;;;;;;4999885;28;20296;-84
2022/12/11 06:56:19;;;;;;;25.55;12.98;;;-1.30;1.00;;;;;;4999966;28;20192;-83
2022/12/11 06:58:46;;;;;;;23.75;13.02;;;-0.90;1.00;;;;;;5000527;28;20226;-83
2022/12/11 07:01:18;;;;;;;17.45;11.13;;;-1.40;1.00;;;;;;5002803;28;20315;-83
2022/12/11 07:03:45;;;;;;;12.82;7.28;;;-2.00;99.90;;;;;;5014474;28;20220;-82
2022/12/11 07:06:12;;;;;;;22.88;12.63;;;-1.20;1.00;;;;;;5015852;28;20269;-84
2022/12/11 07:08:39;;;;;;;22.50;11.52;;;-1.10;99.90;;;;;;5012684;28;20282;-85
2022/12/11 07:11:12;;;;;;;13.52;9.32;;;-0.60;99.90;;;;;;5003744;28;20203;-86
2022/12/11 07:13:43;;;;;;;13.57;9.25;;;-1.10;99.90;;;;;;5001827;28;20206;-83
2022/12/11 07:19:38;;;;;;;14.80;10.45;;;;;;;;;;4999128;28;20277;-85
2022/12/11 07:22:21;;;;;;;21.33;11.07;;;;;;;;;;4999962;28;20221;-85
2022/12/11 07:25:07;;;;;;;18.52;9.75;;;;;;;;;;4992598;28;20231;-85
2022/12/11 07:27:57;;;;;;;20.50;10.07;;;;;;;;;;4985762;28;20198;-85
2022/12/11 07:33:26;;;;;;;19.30;11.10;;;;;;;;;;4978591;28;20206;-84
2022/12/11 07:36:03;;;;;;;14.07;10.20;;;;;;;;;;4977785;28;20243;-85
2022/12/11 07:38:46;;;;;;;17.65;9.65;;;;;;;;;;4977989;28;20669;-85
2022/12/11 07:44:01;;;;;;;17.42;10.05;;;;;;;;;;4983569;28;20214;-83
2022/12/11 07:46:41;;;;;;;13.45;8.10;;;-1.50;99.90;;;;;;4985743;28;20295;-84
2022/12/11 07:49:15;;;;;;;16.23;9.07;;;;;;;;;;4983014;28;20207;-85
2022/12/11 07:51:46;;;;;;;15.57;9.48;;;;;;;;;;4983207;28;20206;-84
2022/12/11 07:54:24;;;;;;;9.30;7.63;;;;;;;;;;4984035;28;20192;-84
2022/12/11 07:56:56;;;;;;;15.40;9.95;;;;;;;;;;4982841;28;20218;-84
2022/12/11 07:59:37;;;;;;;14.63;8.55;;;;;;;;;;4980747;28;20211;-84
2022/12/11 08:04:46;;;;;;;14.73;9.18;;;;;;;;;;4986303;28;20227;-84
2022/12/11 08:07:16;;;;;;;34.28;17.58;;;;;;;;;;4979018;28;20203;-84
2022/12/11 08:09:52;;;;;;;13.50;8.85;;;;;;;;;;4978388;28;20242;-83
2022/12/11 08:12:27;;;;;;;13.52;7.60;;;;;;;;;;4984018;28;20187;-84
2022/12/11 08:15:14;;;;;;;17.10;9.13;;;;;;;;;;4983594;28;20264;-83
2022/12/11 08:20:36;;;;;;;16.98;10.13;;;;;;;;;;5006814;28;20246;-84
2022/12/11 08:23:11;;;;;;;17.42;8.32;;;;;;;;;;4984278;28;20227;-85
2022/12/11 08:25:50;;;;;;;14.52;9.68;;;;;;;;;;4979191;28;20281;-84
2022/12/11 08:28:28;;;;;;;10.85;6.75;;;;;;;;;;4977908;28;20201;-85
2022/12/11 08:31:04;;;;;;;12.20;8.80;;;;;;;;;;4978413;28;20197;-85
2022/12/11 08:33:40;;;;;;;18.35;10.23;;;;;;;;;;4980540;28;20193;-84
2022/12/11 08:36:12;;;;;;;17.23;9.40;;;-1.40;13.50;;;;;;4979444;28;20234;-84
2022/12/11 08:41:49;;;;;;;13.27;7.50;;;;;;;;;;5020093;28;20270;-85
2022/12/11 08:44:26;;;;;;;16.25;10.40;;;;;;;;;;5015783;28;20253;-84
2022/12/11 08:47:08;;;;;;;12.88;8.70;;;;;;;;;;4976870;28;20265;-85
2022/12/11 08:49:52;;;;;;;17.13;9.80;;;;;;;;;;4976021;28;20665;-85
2022/12/11 08:52:30;;;;;;;15.57;8.60;;;;;;;;;;4975804;28;20253;-85
2022/12/11 08:55:04;;;;;;;12.25;9.73;;;;;;;;;;4977845;28;20604;-85
2022/12/11 09:00:28;;;;;;;14.55;7.90;;;;;;;;;;5032266;28;20227;-85
2022/12/11 09:03:06;;;;;;;15.02;8.60;;;;;;;;;;4982051;28;20254;-85
2022/12/11 09:05:38;;;;;;;18.25;9.30;;;-1.40;99.90;;;;;;4993532;28;20228;-84
2022/12/11 09:08:10;;;;;;;14.38;8.48;;;;;;;;;;4994257;28;20214;-85
2022/12/11 09:10:41;;;;;;;15.50;9.70;;;;;;;;;;4990908;28;20198;-85
2022/12/11 09:13:09;;;;;;;14.52;9.80;;;;;;;;;;4979326;28;20239;-85
2022/12/11 09:18:21;;;;;;;14.05;8.27;;;;;;;;;;4983586;28;20208;-85
2022/12/11 09:20:48;;;;;;;18.25;8.88;;;;;;;;;;4980929;28;20240;-84
2022/12/11 09:23:22;;;;;;;16.98;9.43;;;;;;;;;;4977657;28;20232;-85
2022/12/11 09:26:03;;;;;;;16.58;10.52;;;;;;;;;;4980631;28;20234;-85
2022/12/11 09:28:34;;;;;;;20.42;9.55;;;-1.20;6.10;;;;;;4979355;28;20642;-85
2022/12/11 09:31:29;;;;;;;12.70;8.52;;;-1.20;23.90;;;;;;4980563;28;20306;-85
2022/12/11 09:34:14;;;;;;;19.63;8.57;;;-1.20;1.70;;;;;;4980065;28;20200;-85
2022/12/11 09:36:45;;;;;;;12.60;8.73;;;;;;;;;;4980566;28;20211;-85
2022/12/11 09:39:34;;;;;;;15.60;9.35;;;;;;;;;;4978659;28;20190;-85
2022/12/11 09:42:29;;;;;;;16.80;9.40;;;-1.40;99.90;;;;;;4977406;28;20323;-85
2022/12/11 09:45:18;;;;;;;12.48;8.85;;;;;;;;;;4981918;28;20761;-84
2022/12/11 09:51:00;;;;;;;19.17;9.80;;;-1.40;99.90;;;;;;4974712;28;20195;-84
2022/12/11 09:53:40;;;;;;;14.48;10.05;;;-1.30;99.90;;;;;;4994441;28;20199;-84
2022/12/11 09:56:35;;;;;;;15.65;8.48;;;-1.20;99.90;;;;;;4996580;28;20233;-84
2022/12/11 09:59:13;;;;;;;20.10;10.10;;;-1.20;99.90;;;;;;4995700;28;20219;-84
2022/12/11 10:05:33;;;;;;;19.13;10.43;;;-1.20;99.90;;;;;;4926545;29;20234;-85
2022/12/11 10:08:28;;;;;;;17.75;10.32;;;;;;;;;;4982288;28;20271;-85
2022/12/11 10:17:02;;;;;;;13.63;8.77;;;-1.00;99.90;;;;;;5041011;26;20221;-84
2022/12/11 10:19:32;;;;;;;19.20;10.25;;;-0.90;1.00;;;;;;5060943;28;20221;-83
2022/12/11 10:22:02;;;;;;;15.10;10.27;;;-1.10;1.00;;;;;;5060826;28;20215;-84
2022/12/11 10:24:37;;;;;;;17.50;10.32;;;-1.20;99.90;;;;;;5058597;28;20208;-85
2022/12/11 10:27:18;;;;;;;23.80;11.77;;;-1.10;99.90;;;;;;5118848;22;20346;-82
2022/12/11 10:32:42;;;;;;;18.00;10.07;;;-1.10;99.90;;;;;;5106828;28;20204;-80
2022/12/11 10:35:23;;;;;;;14.25;8.40;;;-1.10;99.90;;;;;;5108668;28;20246;-84
2022/12/11 10:38:12;;;;;;;13.82;9.23;;;-1.00;99.90;;;;;;5114136;28;20228;-81
2022/12/11 10:40:48;;;;;;;18.27;9.27;;;;;;;;;;5107959;28;20203;-82
2022/12/11 10:43:17;;;;;;;19.38;10.18;;;;;;;;;;5106232;28;20631;-84
2022/12/11 10:45:53;;;;;;;16.83;11.05;;;;;;;;;;5105982;28;20204;-84
2022/12/11 10:48:24;;;;;;;20.20;9.80;;;;;;;;;;5104518;28;20240;-83
2022/12/11 10:51:03;;;;;;;13.63;9.50;;;-1.00;99.90;;;;;;5116697;28;20210;-81
2022/12/11 10:53:31;;;;;;;18.35;10.13;;;-0.90;99.90;;;;;;5112455;28;20193;-83
2022/12/11 10:56:02;;;;;;;17.77;9.93;;;;;;;;;;5107200;28;20205;-81
2022/12/11 10:58:32;;;;;;;17.52;9.05;;;-0.90;99.90;;;;;;5114307;28;20232;-81
2022/12/11 11:01:19;;;;;;;19.83;9.82;;;-1.00;99.90;;;;;;5110144;28;20520;-82
2022/12/11 11:03:57;;;;;;;20.45;10.77;;;-1.00;99.90;;;;;;5108487;28;20246;-82
2022/12/11 11:06:37;;;;;;;17.98;9.68;;;;;;;;;;5111923;28;20246;-82
2022/12/11 11:09:30;;;;;;;13.43;9.00;;;-0.90;99.90;;;;;;5113336;28;20204;-84
2022/12/11 11:12:01;;;;;;;18.10;10.43;;;;;;;;;;5112858;28;20193;-83
2022/12/11 11:14:29;;;;;;;14.77;8.98;;;;;;;;;;5116320;28;20195;-81
2022/12/11 11:17:03;;;;;;;21.05;10.75;;;-0.90;99.90;;;;;;5115750;28;20229;-82
2022/12/11 11:19:44;;;;;;;;;;;;;;;;;;;;;
2022/12/11 11:22:16;;;;;;;16.38;9.48;;;;;;;;;;5112290;28;20252;-82
2022/12/11 11:24:53;;;;;;;15.88;10.43;;;-0.90;99.90;;;;;;5112969;28;20189;-84
2022/12/11 11:27:33;;;;;;;15.40;9.38;;;-0.90;99.90;;;;;;5109746;28;20236;-83
2022/12/11 11:30:04;;;;;;;14.90;9.48;;;-0.90;99.90;;;;;;5111407;28;20634;-83
2022/12/11 11:32:37;;;;;;;15.43;9.73;;;-1.00;1.00;;;;;;5110496;28;20226;-83
2022/12/11 11:35:18;;;;;;;17.92;8.50;;;-0.70;1.00;;;;;;5105673;28;20191;-81
2022/12/11 11:37:54;;;;;;;17.70;11.60;;;-0.70;99.90;;;;;;5106722;28;20312;-82
2022/12/11 11:40:27;;;;;;;14.23;9.75;;;-0.80;99.90;;;;;;5104923;28;20199;-84
2022/12/11 11:43:03;;;;;;;16.30;9.50;;;-1.20;1.00;;;;;;5099583;28;20224;-81
2022/12/11 11:45:36;;;;;;;15.52;9.50;;;-0.80;1.00;;;;;;5111976;28;20208;-81
2022/12/11 11:48:12;;;;;;;13.75;9.25;;;-0.70;1.00;;;;;;5112164;28;20258;-84
2022/12/11 11:50:45;;;;;;;18.00;11.25;;;-0.70;99.90;;;;;;5110592;28;20189;-82
2022/12/11 11:53:17;;;;;;;13.13;8.45;;;-0.80;99.90;;;;;;5110715;28;20193;-82
2022/12/11 11:55:54;;;;;;;13.95;9.60;;;-0.70;99.90;;;;;;5109198;28;20194;-83
2022/12/11 11:58:24;;;;;;;18.13;9.95;;;-0.80;1.00;;;;;;5109631;28;20233;-84
2022/12/11 12:00:54;;;;;;;11.25;8.20;;;-0.60;99.90;;;;;;5101586;28;20620;-82
2022/12/11 12:03:22;;;;;;;20.90;10.82;;;-1.00;99.90;;;;;;5109657;28;20255;-84
2022/12/11 12:05:56;;;;;;;17.17;10.88;;;-1.10;1.00;;;;;;5108613;28;20213;-83
2022/12/11 12:08:36;;;;;;;16.80;10.50;;;-0.50;1.00;;;;;;5117049;28;20232;-84
2022/12/11 12:11:10;;;;;;;16.33;9.02;;;-0.70;1.00;;;;;;5114983;28;20247;-83
2022/12/11 12:13:45;;;;;;;16.85;10.80;;;-0.60;99.90;;;;;;5103881;28;20188;-83
2022/12/11 12:16:20;;;;;;;17.10;10.00;;;-0.20;1.00;;;;;;5100380;28;20249;-83
2022/12/11 12:18:52;;;;;;;17.60;9.57;;;-0.60;99.90;;;;;;5102003;28;20225;-84
2022/12/11 12:21:31;;;;;;;15.45;11.00;;;-0.80;1.00;;;;;;5101695;28;20296;-84
2022/12/11 12:24:10;;;;;;;18.40;10.90;;;-0.80;1.00;;;;;;5100794;28;20224;-84
2022/12/11 12:26:40;;;;;;;21.77;11.75;;;-0.10;1.00;;;;;;5100396;28;20283;-83
2022/12/11 12:29:21;;;;;;;17.90;11.20;;;-0.70;1.00;;;;;;5101368;28;20212;-84
2022/12/11 12:31:59;;;;;;;17.00;9.65;;;-0.20;1.00;;;;;;5100340;28;20186;-83
2022/12/11 12:34:43;;;;;;;13.48;10.25;;;-0.80;1.00;;;;;;5100303;28;20188;-84
2022/12/11 12:37:22;;;;;;;20.42;10.55;;;-1.00;1.00;;;;;;5102187;28;20233;-85
2022/12/11 12:40:02;;;;;;;15.10;9.93;;;-0.80;1.00;;;;;;5100738;28;20205;-83
2022/12/11 12:42:36;;;;;;;16.20;9.95;;;-0.50;1.00;;;;;;5100278;28;20214;-83
2022/12/11 12:45:11;;;;;;;20.73;10.88;;;-1.00;99.90;;;;;;5101063;28;20232;-84
2022/12/11 12:47:41;;;;;;;19.65;11.60;;;-0.60;1.00;;;;;;5100220;28;20235;-85
2022/12/11 12:50:13;;;;;;;16.45;10.02;;;-0.90;1.00;;;;;;5101683;28;20616;-83
2022/12/11 12:52:42;;;;;;;18.65;10.65;;;-1.00;1.00;;;;;;5101540;28;20214;-84
2022/12/11 12:55:22;;;;;;;16.00;9.93;;;-0.80;1.00;;;;;;5100438;28;20208;-82
2022/12/11 12:57:52;;;;;;;18.40;10.60;;;-0.80;1.00;;;;;;5101339;28;20235;-84
2022/12/11 13:00:31;;;;;;;19.05;10.52;;;-0.80;99.90;;;;;;5101483;28;20206;-84
2022/12/11 13:02:59;;;;;;;15.18;9.90;;;-0.80;1.00;;;;;;5100519;28;20222;-83
2022/12/11 13:05:36;;;;;;;19.58;9.93;;;;;;;;;;5106897;28;20204;-79
2022/12/11 13:08:10;;;;;;;17.90;10.02;;;-0.90;99.90;;;;;;5113308;28;20248;-82
2022/12/11 13:14:27;;;;;;;18.92;10.65;;;-0.60;99.90;;;;;;5052749;28;20258;-82
2022/12/11 13:17:48;;;;;;;24.50;10.68;;;-0.60;99.90;;;;;;5118055;28;20250;-84
2022/12/11 13:20:29;;;;;;;14.27;8.82;;;;;;;;;;5110709;28;20284;-84
2022/12/11 13:39:50;;;;;;;19.70;10.52;;;-0.60;99.90;;;;;;4828475;29;20220;-82
2022/12/11 13:42:28;;;;;;;12.90;8.55;;;-0.60;99.90;;;;;;4935912;28;20203;-85
2022/12/11 13:45:32;;;;;;;16.02;9.05;;;-0.60;99.90;;;;;;4999984;28;20668;-83
2022/12/11 13:48:27;;;;;;;19.10;10.00;;;-0.50;99.90;;;;;;4998415;28;20773;-84
2022/12/11 13:51:16;;;;;;;14.48;9.98;;;-0.50;99.90;;;;;;4993132;28;20271;-84
2022/12/11 13:53:57;;;;;;;19.75;11.27;;;;;;;;;;4998243;28;20215;-80
2022/12/11 13:56:42;;;;;;;15.05;9.82;;;;;;;;;;5004033;28;20219;-85
2022/12/11 14:02:49;;;;;;;19.33;10.50;;;-0.50;1.00;;;;;;5082883;28;20189;-83
2022/12/11 14:08:53;;;;;;;22.13;11.73;;;-0.40;99.90;;;;;;5112852;22;20550;-82
2022/12/11 14:11:58;;;;;;;14.98;8.85;;;-0.40;99.90;;;;;;5133036;28;20670;-82
2022/12/11 14:21:34;;;;;;;20.70;11.05;;;-0.60;1.00;;;;;;5031416;22;20199;-84
2022/12/11 14:27:23;;;;;;;16.27;10.48;;;;;;;;;;5016672;28;20212;-84
2022/12/11 14:30:43;;;;;;;21.92;9.40;;;-0.60;1.00;;;;;;5069788;28;20226;-84
2022/12/11 14:34:10;;;;;;;19.13;10.25;;;-0.60;1.00;;;;;;5043852;28;20224;-84
2022/12/11 14:55:26;;;;;;;19.10;9.45;;;;;;;;;;5113827;28;20196;-84
2022/12/11 15:17:30;;;;;;;18.73;10.00;;;-0.60;1.00;;;;;;5054448;28;20233;-84
2022/12/11 15:23:33;;;;;;;16.85;9.95;;;;;;;;;;5104236;28;20765;-85
2022/12/11 15:26:14;;;;;;;16.33;10.65;;;;;;;;;;5112653;28;20270;-85
2022/12/11 15:29:00;;;;;;;;;;;;;;;;;;;;;
2022/12/11 15:40:37;;;;;;;18.45;11.02;;;;;;;;;;5083129;28;20201;-86
2022/12/11 15:47:44;;;;;;;23.10;10.82;;;-0.50;1.00;;;;;;5048632;28;20325;-85
2022/12/11 15:57:35;;;;;;;28.10;13.68;;;-0.60;46.50;;;;;;5033087;28;20646;-86
2022/12/11 16:11:28;;;;;;;19.48;11.68;;;-0.70;90.40;;;;;;4981336;28;20198;-85
2022/12/11 16:31:15;;;;;;;24.02;11.55;;;-0.70;84.50;;;;;;4933176;28;20210;-85
2022/12/11 16:40:33;;;;;;;27.92;15.60;;;;;;;;;;4958261;28;20240;-85
2022/12/11 16:49:41;;;;;;;;;;;;;;;;;;;;;
2022/12/11 17:29:53;;;;;;;;;;;;;;;;;;;;;
2022/12/11 17:43:29;;;;;;;;;;;;;;;;;;;;;
2022/12/11 18:00:24;;;;;;;24.55;11.85;;;-0.70;99.90;;;;;;4956381;28;20204;-84
2022/12/11 18:06:18;;;;;;;21.80;12.32;;;-0.80;99.90;;;;;;5138430;22;20260;-85
2022/12/11 18:11:52;;;;;;;27.52;11.60;;;;;;;;;;5125546;28;20200;-84